createdAt,value
2022-11-10T00:01:00.507Z,0.7
2022-11-10T00:07:20.521Z,0.7
2022-11-10T00:13:43.554Z,1.3
2022-11-10T00:20:03.620Z,1.3
2022-11-10T00:26:26.568Z,0.1
2022-11-10T00:32:46.586Z,0.1
2022-11-10T00:39:09.606Z,0.8
2022-11-10T00:45:29.508Z,0.8
2022-11-10T00:51:52.586Z,0.7
2022-11-10T00:58:12.527Z,0.7
2022-11-10T01:04:35.687Z,0.6
2022-11-10T01:10:55.557Z,0.6
2022-11-10T01:17:18.508Z,0.6
2022-11-10T01:23:38.583Z,0.6
2022-11-10T01:30:01.514Z,1
2022-11-10T01:36:21.593Z,1
2022-11-10T01:42:44.563Z,0.4
2022-11-10T01:49:04.567Z,0.4
2022-11-10T01:55:27.719Z,1.5
2022-11-10T02:01:47.540Z,1.5
2022-11-10T02:08:10.556Z,0.1
2022-11-10T02:14:30.551Z,0.1
2022-11-10T02:20:53.688Z,0.4
2022-11-10T02:27:13.530Z,0.4
2022-11-10T02:33:36.611Z,1.2
2022-11-10T02:39:56.642Z,1.2
2022-11-10T02:46:19.548Z,0.8
2022-11-10T02:52:39.643Z,0.8
2022-11-10T02:59:02.516Z,1.8
2022-11-10T03:05:22.556Z,1.8
2022-11-10T03:11:45.570Z,0.7
2022-11-10T03:18:05.537Z,0.7
2022-11-10T03:24:28.622Z,2.4
2022-11-10T03:30:48.614Z,2.4
2022-11-10T03:37:11.643Z,1.5
2022-11-10T03:43:31.614Z,1.5
2022-11-10T03:49:54.621Z,2.1
2022-11-10T03:56:14.616Z,2.1
2022-11-10T04:02:37.542Z,0.7
2022-11-10T04:08:57.877Z,0.7
2022-11-10T04:15:20.560Z,2.9
2022-11-10T04:21:40.562Z,2.9
2022-11-10T04:37:32.438Z,1.5
2022-11-10T04:43:52.505Z,1.5
2022-11-10T04:50:15.492Z,1.9
2022-11-10T04:56:35.530Z,1.9
2022-11-10T05:02:58.589Z,3.2
2022-11-10T05:09:18.567Z,3.2
2022-11-10T05:15:41.529Z,1.9
2022-11-10T05:22:01.597Z,1.9
2022-11-10T05:28:24.566Z,2.4
2022-11-10T05:34:44.564Z,2.4
2022-11-10T05:41:07.534Z,1.4
2022-11-10T05:47:27.524Z,1.4
2022-11-10T05:53:50.602Z,1.7
2022-11-10T06:00:10.590Z,1.7
2022-11-10T06:06:33.581Z,1.5
2022-11-10T06:12:53.637Z,1.5
2022-11-10T06:19:16.540Z,1
2022-11-10T06:25:36.537Z,1
2022-11-10T06:31:59.639Z,0.7
2022-11-10T06:38:19.563Z,0.7
2022-11-10T06:44:42.564Z,1.9
2022-11-10T06:51:02.585Z,1.9
2022-11-10T06:57:25.775Z,2.6
2022-11-10T07:04:05.398Z,2.6
2022-11-10T07:10:08.593Z,3.4
2022-11-10T07:16:28.637Z,3.4
2022-11-10T07:22:51.555Z,1.3
2022-11-10T07:29:11.686Z,1.3
2022-11-10T07:35:34.595Z,1.5
2022-11-10T07:41:54.601Z,1.5
2022-11-10T07:48:18.105Z,2.4
2022-11-10T07:54:37.787Z,2.4
2022-11-10T08:01:01.049Z,4.2
2022-11-10T08:07:20.795Z,4.2
2022-11-10T08:13:43.583Z,2.4
2022-11-10T08:20:03.509Z,2.4
2022-11-10T08:26:26.556Z,1.1
2022-11-10T08:32:46.623Z,1.1
2022-11-10T08:39:09.551Z,2
2022-11-10T08:45:29.608Z,2
2022-11-10T08:51:52.572Z,0.7
2022-11-10T08:58:12.518Z,0.7
2022-11-10T09:04:35.621Z,1.8
2022-11-10T09:10:55.508Z,1.8
2022-11-10T09:17:18.542Z,1.2
2022-11-10T09:23:38.578Z,1.2
2022-11-10T09:30:01.506Z,1.7
2022-11-10T09:46:45.184Z,0.3
2022-11-10T09:53:08.039Z,1.7
2022-11-10T09:59:27.477Z,1.7
2022-11-10T10:05:50.643Z,1.7
2022-11-10T10:12:10.532Z,1.7
2022-11-10T10:18:33.566Z,0.7
2022-11-10T10:24:53.577Z,0.7
2022-11-10T10:31:16.517Z,1
2022-11-10T10:37:36.603Z,1
2022-11-10T10:43:59.526Z,0.9
2022-11-10T10:50:19.507Z,0.9
2022-11-10T10:56:42.532Z,0.2
2022-11-10T11:03:04.574Z,0.2
2022-11-10T11:09:25.524Z,0.8
2022-11-10T11:15:45.473Z,0.8
2022-11-10T11:22:08.557Z,0.5
2022-11-10T11:28:28.500Z,0.5
2022-11-10T11:34:51.478Z,0.4
2022-11-10T11:41:11.554Z,0.4
2022-11-10T11:47:34.532Z,1.1
2022-11-10T11:53:54.512Z,1.1
2022-11-10T12:00:17.523Z,0.7
2022-11-10T12:06:37.546Z,0.7
2022-11-10T12:13:00.538Z,1
2022-11-10T12:19:20.511Z,1
2022-11-10T12:25:43.535Z,2.4
2022-11-10T12:32:03.523Z,2.4
2022-11-10T12:38:26.521Z,0.7
2022-11-10T12:44:46.563Z,0.7
2022-11-10T12:51:09.487Z,1.2
2022-11-10T12:57:29.567Z,1.2
2022-11-10T13:03:52.505Z,0.8
2022-11-10T13:10:12.486Z,0.8
2022-11-10T13:16:35.627Z,0.3
2022-11-10T13:22:55.499Z,0.3
2022-11-10T13:29:18.528Z,1.7
2022-11-10T13:35:38.518Z,1.7
2022-11-10T13:42:01.475Z,0.3
2022-11-10T13:48:21.842Z,0.3
2022-11-10T13:54:44.504Z,0.6
2022-11-10T14:01:04.498Z,0.6
2022-11-10T14:07:27.500Z,1.9
2022-11-10T14:13:47.580Z,1.9
2022-11-10T14:20:10.531Z,0.4
2022-11-10T14:26:31.472Z,0.4
2022-11-10T14:32:54.814Z,1.3
2022-11-10T14:39:14.612Z,1.3
2022-11-10T14:45:37.559Z,0.9
2022-11-10T14:51:57.629Z,0.9
2022-11-10T14:58:20.807Z,1.9
2022-11-10T15:04:40.549Z,1.9
2022-11-10T15:21:44.246Z,0.8
2022-11-10T15:28:04.474Z,0.8
2022-11-10T15:34:27.514Z,1.6
2022-11-10T15:40:47.709Z,1.6
2022-11-10T15:47:10.540Z,1.6
2022-11-10T15:53:30.563Z,1.6
2022-11-10T15:59:53.671Z,1
2022-11-10T16:06:13.536Z,1
2022-11-10T16:12:36.562Z,0.7
2022-11-10T16:18:56.651Z,0.7
2022-11-10T16:25:23.937Z,1.4
2022-11-10T16:31:39.563Z,1.4
2022-11-10T16:38:02.687Z,1.5
2022-11-10T16:44:25.047Z,1.5
2022-11-10T16:50:45.535Z,2
2022-11-10T16:57:05.687Z,2
2022-11-10T17:03:28.504Z,0.7
2022-11-10T17:09:48.493Z,0.7
2022-11-10T17:16:11.730Z,2.8
2022-11-10T17:22:31.566Z,2.8
2022-11-10T17:28:54.618Z,2.7
2022-11-10T17:35:14.718Z,2.7
2022-11-10T17:41:37.783Z,2.6
2022-11-10T17:47:57.581Z,2.6
2022-11-10T17:54:20.644Z,3.2
2022-11-10T18:00:40.560Z,3.2
2022-11-10T18:07:03.623Z,4.1
2022-11-10T18:13:24.027Z,4.1
2022-11-10T18:19:46.555Z,1.2
2022-11-10T18:26:06.570Z,1.2
2022-11-10T18:32:29.742Z,1.3
2022-11-10T18:38:49.486Z,1.3
2022-11-10T18:45:12.649Z,0.7
2022-11-10T18:51:32.692Z,0.7
2022-11-10T18:57:55.518Z,2.6
2022-11-10T19:04:15.595Z,2.6
2022-11-10T19:10:38.610Z,1.5
2022-11-10T19:16:58.604Z,1.5
2022-11-10T19:23:21.815Z,3.3
2022-11-10T19:29:41.807Z,3.3
2022-11-10T19:36:04.609Z,4
2022-11-10T19:42:24.555Z,4
2022-11-10T19:48:47.778Z,4.8
2022-11-10T19:55:07.575Z,4.8
2022-11-10T20:01:30.624Z,2.9
2022-11-10T20:07:50.727Z,2.9
2022-11-10T20:31:32.540Z,5.6
2022-11-10T20:37:55.485Z,5.6
2022-11-10T20:44:15.576Z,5.6
2022-11-10T20:50:38.877Z,3.2
2022-11-10T20:56:58.790Z,3.2
2022-11-10T21:03:21.879Z,3.4
2022-11-10T21:09:41.752Z,3.4
2022-11-10T21:16:04.708Z,2.4
2022-11-10T21:22:24.567Z,2.4
2022-11-10T21:28:47.705Z,4
2022-11-10T21:35:07.703Z,4
2022-11-10T21:41:30.475Z,4.2
2022-11-10T21:47:50.639Z,4.2
2022-11-10T21:54:13.600Z,3.2
2022-11-10T22:00:33.586Z,3.2
2022-11-10T22:06:56.771Z,3.7
2022-11-10T22:13:16.565Z,3.7
2022-11-10T22:19:39.555Z,1.9
2022-11-10T22:25:59.728Z,1.9
2022-11-10T22:32:22.605Z,2.3
2022-11-10T22:38:42.577Z,2.3
2022-11-10T22:45:05.646Z,4.6
2022-11-10T22:51:25.618Z,4.6
2022-11-10T22:57:48.621Z,4.2
2022-11-10T23:22:02.619Z,7.8
2022-11-10T23:28:22.468Z,7.8
2022-11-10T23:34:45.486Z,7.8
2022-11-10T23:41:05.594Z,7.8
2022-11-10T23:47:28.584Z,2.6
2022-11-10T23:53:48.549Z,2.6
